Time;durP1;ratioP1;P1;durP2;ratioP2;P2;SDS_P1;SDS_P2;PMS_P1;PMS_P2;Temp;Humidity;BMP_temperature;BMP_pressure;BME280_temperature;BME280_humidity;BME280_pressure;Samples;Min_cycle;Max_cycle;Signal;HPM_P1;HPM_P2
2021/05/30 00:00:53;;;;;;;5.47;1.96;;;;;;;13.12;75.85;99442.83;366187;146;858779;-64
2021/05/30 00:01:55;;;;;;;4.87;1.82;;;;;;;13.23;75.33;99443.39;366534;146;857252;-64
2021/05/30 00:02:56;;;;;;;4.42;2.23;;;;;;;13.36;74.97;99448.25;363922;146;858962;-64
2021/05/30 00:03:58;;;;;;;8.89;1.95;;;;;;;13.36;74.97;99448.25;365741;147;860115;-63
2021/05/30 00:05:00;;;;;;;4.22;1.91;;;;;;;13.66;73.90;99443.11;362109;146;864795;-63
2021/05/30 00:06:02;;;;;;;4.35;1.73;;;;;;;13.98;72.74;99433.53;364097;146;864885;-65
2021/05/30 00:07:04;;;;;;;2.66;1.69;;;;;;;13.98;72.74;99433.53;365881;147;860143;-64
2021/05/30 00:08:06;;;;;;;6.09;2.05;;;;;;;14.24;72.05;99450.09;364465;146;865938;-64
2021/05/30 00:09:08;;;;;;;2.95;2.03;;;;;;;14.41;71.52;99447.81;363529;146;858901;-64
2021/05/30 00:10:11;;;;;;;5.35;1.79;;;;;;;14.60;70.59;99444.61;359458;150;859337;-65
2021/05/30 00:11:13;;;;;;;2.44;1.71;;;;;;;14.76;70.26;99445.00;364297;146;857240;-62
2021/05/30 00:12:15;;;;;;;6.18;1.89;;;;;;;14.94;69.63;99446.15;363315;147;857439;-63
2021/05/30 00:13:18;;;;;;;2.33;1.94;;;;;;;15.02;68.47;99435.44;364650;146;864951;-63
2021/05/30 00:14:20;;;;;;;2.51;1.92;;;;;;;15.11;68.54;99435.12;365248;145;857515;-61
2021/05/30 00:15:22;;;;;;;2.81;2.23;;;;;;;15.15;67.73;99443.70;363504;147;859834;-63
2021/05/30 00:16:25;;;;;;;4.00;2.35;;;;;;;15.26;68.06;99445.91;363777;145;865300;-63
2021/05/30 00:33:24;;;;;;;5.06;3.06;;;;;;;15.35;66.94;99437.76;373585;142;877930;-61
2021/05/30 00:34:26;;;;;;;5.49;2.69;;;;;;;15.05;67.67;99437.94;366200;146;857225;-61
2021/05/30 00:35:28;;;;;;;5.08;3.56;;;;;;;14.98;68.15;99439.92;364549;144;866727;-61
2021/05/30 00:36:30;;;;;;;8.77;2.92;;;;;;;14.93;68.37;99433.15;363350;147;866518;-60
2021/05/30 00:37:32;;;;;;;5.31;2.74;;;;;;;14.92;68.38;99445.34;363407;146;857331;-60
2021/05/30 00:38:34;;;;;;;5.24;3.15;;;;;;;14.95;68.28;99437.42;364847;144;864762;-60
2021/05/30 00:39:36;;;;;;;5.59;2.85;;;;;;;14.95;68.34;99449.59;361995;147;865035;-60
2021/05/30 00:40:40;;;;;;;4.03;2.67;;;;;;;14.95;68.25;99437.42;364129;145;857217;-60
2021/05/30 00:41:41;;;;;;;8.46;2.58;;;;;;;;;;362695;145;859134;-60
2021/05/30 00:42:43;;;;;;;6.37;2.71;;;;;;;;;;359829;147;866070;-60
2021/05/30 00:43:45;;;;;;;3.77;2.99;;;;;;;;;;354648;149;859908;-60
2021/05/30 00:44:47;;;;;;;4.52;2.96;;;;;;;;;;365157;147;864748;-60
2021/05/30 00:45:49;;;;;;;7.77;2.83;;;;;;;;;;360227;145;857218;-60
2021/05/30 00:46:52;;;;;;;5.69;2.88;;;;;;;;;;365585;145;859015;-61
2021/05/30 00:47:54;;;;;;;4.44;3.11;;;;;;;;;;366825;145;857345;-60
2021/05/30 00:48:56;;;;;;;6.21;2.88;;;;;;;;;;364127;145;858588;-61
2021/05/30 00:49:57;;;;;;;6.73;2.89;;;;;;;;;;365746;145;864810;-61
2021/05/30 00:51:00;;;;;;;7.51;2.82;;;;;;;;;;363197;147;864832;-61
2021/05/30 00:52:03;;;;;;;3.53;2.75;;;;;;;;;;359494;147;857256;-61
2021/05/30 00:53:06;;;;;;;4.17;3.09;;;;;;;;;;359499;149;864770;-61
2021/05/30 00:54:08;;;;;;;5.64;2.74;;;;;;;;;;357427;147;857787;-61
2021/05/30 00:55:10;;;;;;;3.98;2.89;;;;;;;;;;357615;148;865606;-60
2021/05/30 00:56:14;;;;;;;6.21;3.04;;;;;;;;;;360090;147;866606;-60
2021/05/30 00:57:15;;;;;;;10.00;2.99;;;;;;;;;;358737;147;857822;-61
2021/05/30 00:58:17;;;;;;;3.93;2.89;;;;;;;;;;360772;148;865003;-61
2021/05/30 00:59:18;;;;;;;4.64;2.92;;;;;;;;;;360268;148;857547;-59
2021/05/30 01:00:22;;;;;;;6.55;3.12;;;;;;;;;;357710;147;857455;-60
2021/05/30 01:01:24;;;;;;;8.47;3.11;;;;;;;;;;360483;149;858224;-60
2021/05/30 01:02:25;;;;;;;5.09;2.65;;;;;;;;;;359851;147;859362;-60
2021/05/30 01:03:27;;;;;;;5.14;2.61;;;;;;;;;;361464;147;857175;-60
2021/05/30 01:04:29;;;;;;;12.08;3.05;;;;;;;;;;363411;147;857855;-60
2021/05/30 01:05:31;;;;;;;9.08;2.77;;;;;;;;;;359760;148;861566;-60
2021/05/30 01:06:35;;;;;;;7.97;2.67;;;;;;;;;;359748;148;858679;-62
2021/05/30 01:07:41;;;;;;;5.85;2.79;;;;;;;;;;359316;148;857700;-61
2021/05/30 01:08:41;;;;;;;7.36;2.79;;;;;;;;;;360580;147;857259;-60
2021/05/30 01:09:43;;;;;;;5.61;2.77;;;;;;;;;;359285;148;858061;-59
2021/05/30 01:10:45;;;;;;;10.49;3.04;;;;;;;;;;359116;148;857838;-62
2021/05/30 01:13:31;;;;;;;5.49;2.71;;;;;;;15.05;68.50;99450.97;372361;142;882201;-60
2021/05/30 01:14:35;;;;;;;5.84;3.35;;;;;;;15.05;68.50;99450.97;352576;151;859041;-61
2021/05/30 01:15:36;;;;;;;7.85;2.73;;;;;;;14.98;68.74;99441.66;349280;150;865325;-60
2021/05/30 01:16:40;;;;;;;7.85;3.17;;;;;;;15.03;68.59;99450.17;362212;145;857834;-61
2021/05/30 01:17:43;;;;;;;6.71;2.92;;;;;;;15.04;68.31;99441.45;363102;147;857516;-61
2021/05/30 01:18:46;;;;;;;5.98;3.09;;;;;;;15.06;68.30;99449.23;359635;145;857500;-60
2021/05/30 01:19:48;;;;;;;7.46;3.33;;;;;;;15.05;68.30;99443.16;362498;145;857732;-60
2021/05/30 01:20:50;;;;;;;4.27;3.01;;;;;;;15.07;68.23;99446.56;361818;147;857248;-61
2021/05/30 01:21:52;;;;;;;5.77;2.93;;;;;;;15.04;67.93;99450.14;363798;145;857376;-61
2021/05/30 01:22:54;;;;;;;8.41;2.99;;;;;;;15.01;67.97;99449.38;367063;145;857248;-60
2021/05/30 01:23:56;;;;;;;6.55;2.79;;;;;;;14.94;68.11;99450.49;364181;146;864918;-60
2021/05/30 01:24:58;;;;;;;4.72;2.76;;;;;;;14.92;68.37;99447.09;365405;145;858970;-60
2021/05/30 01:26:00;;;;;;;7.93;3.11;;;;;;;14.85;68.32;99449.06;362423;148;857307;-60
2021/05/30 01:27:02;;;;;;;5.87;2.71;;;;;;;14.70;68.71;99447.81;361703;145;865266;-60
2021/05/30 01:28:05;;;;;;;9.15;2.99;;;;;;;14.65;69.04;99444.47;364750;145;857268;-60
2021/05/30 01:29:07;;;;;;;3.95;2.64;;;;;;;14.57;69.29;99449.92;363537;147;857262;-62
2021/05/30 01:30:10;;;;;;;4.13;3.03;;;;;;;14.54;69.71;99450.02;362021;144;865331;-60
2021/05/30 01:31:12;;;;;;;3.16;2.86;;;;;;;14.54;69.71;99450.02;360460;148;857628;-61
2021/05/30 01:32:14;;;;;;;5.23;3.14;;;;;;;14.51;69.79;99450.12;358510;148;859022;-60
2021/05/30 01:33:16;;;;;;;4.71;3.24;;;;;;;14.40;70.13;99453.08;358712;147;859640;-60
2021/05/30 01:34:18;;;;;;;5.63;2.11;;;;;;;14.41;70.56;99455.62;359140;150;866730;-60
2021/05/30 01:35:19;;;;;;;7.62;2.16;;;;;;;14.42;70.21;99459.93;359492;147;858079;-61
2021/05/30 01:36:22;;;;;;;5.03;2.24;;;;;;;;;;359234;150;859142;-61
2021/05/30 01:37:23;;;;;;;3.41;1.96;;;;;;;;;;359304;148;858716;-60
2021/05/30 01:38:25;;;;;;;5.18;2.23;;;;;;;;;;359158;148;859087;-61
2021/05/30 01:39:26;;;;;;;4.85;2.34;;;;;;;;;;359331;149;858153;-61
2021/05/30 01:40:29;;;;;;;3.23;2.39;;;;;;;;;;359245;147;857826;-61
2021/05/30 01:41:31;;;;;;;4.66;2.61;;;;;;;;;;352126;151;857277;-61
2021/05/30 01:42:32;;;;;;;6.77;2.79;;;;;;;;;;356818;148;866520;-61
2021/05/30 01:43:34;;;;;;;5.33;3.23;;;;;;;;;;359820;147;859048;-60
2021/05/30 01:44:36;;;;;;;4.42;3.06;;;;;;;;;;359341;150;858205;-61
2021/05/30 01:45:38;;;;;;;6.08;3.64;;;;;;;;;;359360;149;860152;-60
2021/05/30 01:46:40;;;;;;;6.58;3.10;;;;;;;;;;359428;148;859028;-59
2021/05/30 01:47:42;;;;;;;3.88;3.11;;;;;;;;;;361994;147;865026;-60
2021/05/30 01:48:44;;;;;;;5.27;3.24;;;;;;;;;;356945;148;858791;-60
2021/05/30 01:49:45;;;;;;;4.73;3.54;;;;;;;;;;357515;147;857847;-60
2021/05/30 01:50:47;;;;;;;5.15;3.26;;;;;;;;;;359713;148;865184;-60
2021/05/30 01:51:49;;;;;;;5.56;3.57;;;;;;;;;;357814;147;857487;-60
2021/05/30 01:52:51;;;;;;;9.64;3.41;;;;;;;;;;359888;148;857407;-60
2021/05/30 01:54:00;;;;;;;5.81;2.99;;;;;;;;;;358054;148;859930;-60
2021/05/30 01:54:56;;;;;;;8.18;3.27;;;;;;;;;;357675;147;859440;-61
2021/05/30 01:56:59;;;;;;;6.89;3.51;;;;;;;;;;359422;147;857557;-60
2021/05/30 01:58:01;;;;;;;4.29;3.50;;;;;;;;;;358508;147;865122;-61
2021/05/30 01:59:02;;;;;;;4.40;3.35;;;;;;;;;;358497;150;857466;-61
2021/05/30 02:00:05;;;;;;;3.68;3.33;;;;;;;;;;350585;151;857867;-60
2021/05/30 02:01:09;;;;;;;5.98;3.64;;;;;;;;;;348753;151;857813;-60
2021/05/30 02:02:10;;;;;;;4.87;3.68;;;;;;;;;;349210;152;859525;-60
2021/05/30 02:03:12;;;;;;;5.49;3.33;;;;;;;;;;358444;147;866607;-60
2021/05/30 02:04:15;;;;;;;5.41;3.45;;;;;;;;;;356780;149;858818;-60
2021/05/30 02:05:17;;;;;;;6.50;3.63;;;;;;;;;;356656;147;866728;-60
2021/05/30 02:06:21;;;;;;;5.26;3.39;;;;;;;;;;360283;148;866064;-60
2021/05/30 02:07:22;;;;;;;3.87;3.44;;;;;;;;;;358168;148;857422;-60
2021/05/30 02:08:24;;;;;;;4.70;3.51;;;;;;;;;;357884;147;865497;-60
2021/05/30 02:09:26;;;;;;;4.08;3.68;;;;;;;;;;353079;152;860213;-60
2021/05/30 02:10:28;;;;;;;5.95;3.71;;;;;;;;;;355129;149;860937;-60
2021/05/30 02:11:29;;;;;;;6.01;4.09;;;;;;;;;;358924;147;867428;-60
2021/05/30 02:12:31;;;;;;;5.01;3.33;;;;;;;;;;359366;149;859043;-60
2021/05/30 02:13:33;;;;;;;4.95;3.35;;;;;;;;;;354224;148;857575;-60
2021/05/30 02:14:34;;;;;;;4.57;3.57;;;;;;;;;;355344;150;858271;-60
2021/05/30 02:15:36;;;;;;;9.59;4.41;;;;;;;;;;355670;151;857730;-60
2021/05/30 02:16:38;;;;;;;4.14;3.53;;;;;;;;;;347264;153;857379;-60
2021/05/30 02:17:40;;;;;;;4.00;3.43;;;;;;;;;;342770;155;865009;-60
2021/05/30 02:18:41;;;;;;;5.33;3.59;;;;;;;;;;341464;153;857383;-60
2021/05/30 02:19:43;;;;;;;5.20;3.88;;;;;;;;;;347220;153;857797;-59
2021/05/30 02:20:46;;;;;;;4.75;3.56;;;;;;;;;;346160;153;857305;-60
2021/05/30 02:21:49;;;;;;;5.26;3.56;;;;;;;;;;342611;155;864965;-60
2021/05/30 02:22:51;;;;;;;6.06;3.44;;;;;;;;;;342094;156;864162;-60
2021/05/30 02:23:52;;;;;;;4.66;3.89;;;;;;;;;;343784;155;859017;-60
2021/05/30 02:24:54;;;;;;;5.71;3.79;;;;;;;;;;343826;155;857892;-60
2021/05/30 02:25:55;;;;;;;6.33;3.69;;;;;;;;;;342174;155;857314;-60
2021/05/30 02:26:57;;;;;;;5.59;4.04;;;;;;;;;;342631;155;866654;-59
2021/05/30 02:27:59;;;;;;;6.29;4.16;;;;;;;;;;341281;155;865637;-60
2021/05/30 02:29:00;;;;;;;5.36;4.41;;;;;;;;;;346123;155;857418;-61
2021/05/30 02:30:03;;;;;;;6.55;3.90;;;;;;;;;;347810;153;859031;-61
2021/05/30 02:31:04;;;;;;;5.14;3.83;;;;;;;;;;342268;155;866676;-60
2021/05/30 02:32:07;;;;;;;5.36;3.74;;;;;;;;;;342873;154;858033;-61
2021/05/30 02:33:08;;;;;;;5.81;3.99;;;;;;;;;;346353;152;857363;-61
2021/05/30 02:34:10;;;;;;;9.05;4.34;;;;;;;;;;349202;154;858707;-60
2021/05/30 02:35:11;;;;;;;4.60;4.18;;;;;;;;;;346812;153;857296;-59
2021/05/30 02:36:13;;;;;;;5.05;3.96;;;;;;;;;;346367;153;857557;-61
2021/05/30 02:37:15;;;;;;;6.66;4.09;;;;;;;;;;345820;155;857669;-60
2021/05/30 02:38:17;;;;;;;7.70;3.93;;;;;;;;;;345575;153;857418;-60
2021/05/30 02:39:19;;;;;;;4.56;3.69;;;;;;;;;;347301;154;860544;-62
2021/05/30 02:40:22;;;;;;;8.29;4.09;;;;;;;;;;346805;153;865427;-62
2021/05/30 02:41:23;;;;;;;6.59;4.19;;;;;;;;;;346245;153;859800;-62
2021/05/30 02:42:25;;;;;;;8.09;4.31;;;;;;;;;;346794;154;857347;-62
2021/05/30 02:43:26;;;;;;;5.15;4.17;;;;;;;;;;347569;153;857198;-62
2021/05/30 02:44:28;;;;;;;4.61;4.11;;;;;;;;;;346124;153;857219;-62
2021/05/30 02:45:30;;;;;;;6.97;4.19;;;;;;;;;;347934;153;857334;-61
2021/05/30 02:46:33;;;;;;;6.81;3.98;;;;;;;;;;346038;153;857364;-62
2021/05/30 02:47:34;;;;;;;5.56;4.54;;;;;;;;;;346267;155;857656;-62
2021/05/30 02:48:36;;;;;;;5.40;3.71;;;;;;;;;;348192;153;857635;-61
2021/05/30 02:49:38;;;;;;;6.09;4.41;;;;;;;;;;346479;152;859594;-61
2021/05/30 02:50:41;;;;;;;5.66;4.17;;;;;;;;;;344136;155;858444;-61
2021/05/30 02:51:43;;;;;;;4.62;4.19;;;;;;;;;;338782;155;857838;-60
2021/05/30 02:52:44;;;;;;;5.05;4.11;;;;;;;;;;341848;156;859830;-61
2021/05/30 02:53:46;;;;;;;6.82;4.27;;;;;;;;;;344162;156;859333;-60
2021/05/30 02:54:48;;;;;;;5.89;4.04;;;;;;;;;;345012;154;865939;-60
2021/05/30 02:55:49;;;;;;;4.11;3.72;;;;;;;;;;340463;156;861193;-62
2021/05/30 02:56:53;;;;;;;5.80;3.90;;;;;;;;;;347466;152;857667;-61
2021/05/30 02:57:55;;;;;;;4.97;3.98;;;;;;;;;;341716;155;857696;-61
2021/05/30 02:58:56;;;;;;;7.12;4.37;;;;;;;;;;347582;154;864911;-61
2021/05/30 02:59:58;;;;;;;6.46;3.99;;;;;;;;;;346750;152;857595;-62
2021/05/30 03:01:00;;;;;;;7.46;3.96;;;;;;;;;;346630;154;858790;-62
2021/05/30 03:02:02;;;;;;;4.81;3.82;;;;;;;;;;345791;154;866085;-61
2021/05/30 03:03:03;;;;;;;7.13;3.91;;;;;;;;;;347146;152;858008;-62
2021/05/30 03:04:05;;;;;;;4.23;3.62;;;;;;;;;;350900;153;864942;-62
2021/05/30 03:05:07;;;;;;;7.43;3.81;;;;;;;;;;344343;153;865893;-62
2021/05/30 03:06:09;;;;;;;4.90;3.87;;;;;;;;;;344874;152;857888;-61
2021/05/30 03:07:11;;;;;;;7.61;3.64;;;;;;;;;;344132;155;866139;-62
2021/05/30 03:08:12;;;;;;;6.27;3.78;;;;;;;;;;340973;156;864875;-61
2021/05/30 03:09:14;;;;;;;6.56;3.97;;;;;;;;;;345370;155;857639;-61
2021/05/30 03:10:16;;;;;;;4.83;4.03;;;;;;;;;;334585;161;866128;-61
2021/05/30 03:11:18;;;;;;;5.08;3.52;;;;;;;;;;344694;154;858915;-60
2021/05/30 03:12:20;;;;;;;3.81;3.35;;;;;;;;;;344077;155;857718;-60
2021/05/30 03:13:21;;;;;;;5.56;3.53;;;;;;;;;;345374;154;856982;-60
2021/05/30 03:14:23;;;;;;;4.61;3.62;;;;;;;;;;349831;152;857393;-59
2021/05/30 03:15:25;;;;;;;5.21;3.96;;;;;;;;;;358040;150;864794;-59
2021/05/30 03:16:28;;;;;;;4.91;3.79;;;;;;;;;;359446;147;857288;-61
2021/05/30 03:17:30;;;;;;;5.84;3.69;;;;;;;;;;359435;149;865464;-59
2021/05/30 03:18:31;;;;;;;7.41;3.92;;;;;;;;;;356909;148;857415;-63
2021/05/30 03:19:33;;;;;;;5.51;3.89;;;;;;;;;;359131;147;865489;-63
2021/05/30 03:20:35;;;;;;;5.15;3.45;;;;;;;;;;357316;148;865843;-61
2021/05/30 03:21:38;;;;;;;4.69;3.62;;;;;;;;;;359666;148;858114;-61
2021/05/30 03:22:40;;;;;;;4.17;3.44;;;;;;;;;;359748;148;859015;-60
2021/05/30 03:23:41;;;;;;;9.85;3.91;;;;;;;;;;358994;148;866670;-61
2021/05/30 03:24:43;;;;;;;4.23;3.33;;;;;;;;;;358700;147;858138;-62
2021/05/30 03:25:45;;;;;;;4.68;3.56;;;;;;;;;;359009;148;859438;-63
2021/05/30 03:26:47;;;;;;;4.82;3.39;;;;;;;;;;358619;148;858728;-63
2021/05/30 03:27:49;;;;;;;4.51;3.51;;;;;;;;;;359602;147;859698;-62
2021/05/30 03:28:51;;;;;;;4.83;3.47;;;;;;;;;;355426;149;857690;-64
2021/05/30 03:29:53;;;;;;;7.60;3.51;;;;;;;;;;358143;148;865748;-63
2021/05/30 03:30:55;;;;;;;7.59;3.60;;;;;;;;;;358133;148;857916;-63
2021/05/30 03:31:57;;;;;;;5.71;3.47;;;;;;;;;;358712;150;859690;-63
2021/05/30 03:33:00;;;;;;;5.82;3.71;;;;;;;;;;359671;148;857984;-63
2021/05/30 03:34:02;;;;;;;4.77;3.44;;;;;;;;;;357103;148;857162;-65
2021/05/30 03:35:04;;;;;;;6.40;3.61;;;;;;;;;;359386;148;859110;-64
2021/05/30 03:36:09;;;;;;;8.04;3.31;;;;;;;;;;359054;148;857286;-63
2021/05/30 03:37:10;;;;;;;10.77;3.84;;;;;;;;;;358658;148;859185;-61
2021/05/30 03:38:13;;;;;;;7.86;3.49;;;;;;;;;;359632;148;865563;-62
2021/05/30 03:39:15;;;;;;;3.91;3.49;;;;;;;;;;358461;148;857433;-63
2021/05/30 03:40:28;;;;;;;7.00;3.88;;;;;;;;;;358112;148;858457;-61
2021/05/30 03:41:31;;;;;;;4.28;3.27;;;;;;;;;;357866;148;866474;-63
2021/05/30 03:42:36;;;;;;;4.52;3.29;;;;;;;;;;356865;148;857240;-62
2021/05/30 03:43:35;;;;;;;4.08;3.17;;;;;;;;;;353452;151;857169;-61
2021/05/30 03:44:36;;;;;;;5.26;3.46;;;;;;;;;;358451;148;857247;-60
2021/05/30 03:45:38;;;;;;;4.56;3.23;;;;;;;;;;358460;148;866771;-60
2021/05/30 03:46:41;;;;;;;5.12;3.52;;;;;;;;;;361148;148;865824;-60
2021/05/30 03:47:43;;;;;;;3.67;3.02;;;;;;;;;;358852;147;857411;-60
2021/05/30 03:48:44;;;;;;;5.44;2.82;;;;;;;;;;358364;150;866660;-62
2021/05/30 03:49:46;;;;;;;4.86;3.46;;;;;;;;;;356335;148;859114;-61
2021/05/30 03:50:49;;;;;;;8.24;3.12;;;;;;;;;;358596;148;858315;-64
2021/05/30 03:51:51;;;;;;;4.08;2.89;;;;;;;;;;360104;148;865085;-63
2021/05/30 03:52:53;;;;;;;3.81;3.05;;;;;;;;;;358112;148;858576;-62
2021/05/30 03:53:54;;;;;;;4.24;3.64;;;;;;;;;;358331;148;858167;-63
2021/05/30 03:54:56;;;;;;;4.76;3.03;;;;;;;;;;358055;149;866264;-64
2021/05/30 03:55:58;;;;;;;3.78;3.39;;;;;;;;;;359312;148;859330;-62
2021/05/30 03:56:59;;;;;;;6.73;3.35;;;;;;;;;;358506;148;857940;-59
2021/05/30 03:58:03;;;;;;;4.65;3.14;;;;;;;;;;358454;148;866711;-61
2021/05/30 03:59:05;;;;;;;3.88;3.36;;;;;;;;;;358446;148;859327;-65
2021/05/30 04:00:11;;;;;;;4.61;3.37;;;;;;;;;;359968;148;857379;-64
2021/05/30 04:01:12;;;;;;;5.24;3.19;;;;;;;;;;357421;148;857714;-61
2021/05/30 04:02:14;;;;;;;3.67;3.17;;;;;;;;;;359629;147;858593;-60
2021/05/30 04:03:15;;;;;;;5.15;3.22;;;;;;;;;;359343;147;864915;-62
2021/05/30 04:04:17;;;;;;;3.88;3.29;;;;;;;;;;349751;150;857458;-65
2021/05/30 04:05:19;;;;;;;5.74;3.08;;;;;;;;;;352176;150;859091;-63
2021/05/30 04:06:22;;;;;;;4.25;2.81;;;;;;;;;;352185;149;858761;-63
2021/05/30 04:07:23;;;;;;;5.03;3.27;;;;;;;;;;357647;148;857043;-60
2021/05/30 04:08:25;;;;;;;5.31;3.47;;;;;;;;;;358468;148;857284;-63
2021/05/30 04:09:27;;;;;;;3.99;3.54;;;;;;;;;;356351;149;859384;-62
2021/05/30 04:10:28;;;;;;;4.33;3.09;;;;;;;;;;358700;148;857337;-63
2021/05/30 04:11:30;;;;;;;4.40;3.26;;;;;;;;;;357339;149;858283;-64
2021/05/30 04:12:32;;;;;;;4.82;3.26;;;;;;;;;;357504;148;864844;-65
2021/05/30 04:13:33;;;;;;;5.24;3.27;;;;;;;;;;359430;148;857800;-62
2021/05/30 04:14:35;;;;;;;4.46;3.48;;;;;;;;;;358141;149;865095;-62
2021/05/30 04:15:38;;;;;;;3.68;3.30;;;;;;;;;;357592;148;857250;-60
2021/05/30 04:16:40;;;;;;;5.05;3.19;;;;;;;;;;358471;148;857325;-61
2021/05/30 04:17:42;;;;;;;4.22;3.21;;;;;;;;;;356903;148;858617;-61
2021/05/30 04:18:44;;;;;;;4.64;3.15;;;;;;;;;;358334;148;858267;-62
2021/05/30 04:19:45;;;;;;;5.04;3.41;;;;;;;;;;358431;148;857281;-62
2021/05/30 04:20:47;;;;;;;3.84;3.19;;;;;;;;;;357337;149;858475;-64
2021/05/30 04:21:49;;;;;;;6.16;3.09;;;;;;;;;;359256;148;857500;-58
2021/05/30 04:22:51;;;;;;;3.45;2.91;;;;;;;;;;360526;148;859937;-59
2021/05/30 04:23:52;;;;;;;4.25;3.29;;;;;;;;;;360221;149;859028;-59
2021/05/30 04:24:54;;;;;;;5.46;3.53;;;;;;;;;;358912;147;864972;-59
2021/05/30 04:25:57;;;;;;;4.74;3.63;;;;;;;;;;357392;148;857388;-60
2021/05/30 04:26:59;;;;;;;7.81;3.38;;;;;;;;;;358363;148;857767;-58
2021/05/30 04:28:00;;;;;;;4.11;3.59;;;;;;;;;;359374;147;859012;-59
2021/05/30 04:29:02;;;;;;;4.00;3.59;;;;;;;;;;357763;149;857426;-59
2021/05/30 04:30:05;;;;;;;4.31;3.49;;;;;;;;;;359372;148;857847;-58
2021/05/30 04:31:06;;;;;;;4.18;3.36;;;;;;;;;;357958;148;864867;-59
2021/05/30 04:53:44;;;;;;;7.09;3.32;;;;;;;14.86;68.36;99467.24;371289;141;881352;-58
2021/05/30 04:54:46;;;;;;;7.08;3.49;;;;;;;14.69;68.39;99472.12;362300;147;859223;-59
2021/05/30 04:55:48;;;;;;;3.71;2.82;;;;;;;14.66;68.50;99472.23;356025;149;858943;-60
2021/05/30 04:56:50;;;;;;;4.30;3.43;;;;;;;14.64;68.55;99466.22;356158;149;865356;-58
2021/05/30 04:57:51;;;;;;;6.10;3.29;;;;;;;14.61;68.74;99468.02;356790;150;858976;-59
2021/05/30 04:58:53;;;;;;;6.45;3.36;;;;;;;;;;357484;149;866396;-59
2021/05/30 04:59:55;;;;;;;8.54;3.51;;;;;;;;;;361727;147;866245;-59
2021/05/30 05:00:56;;;;;;;5.03;3.27;;;;;;;;;;360984;147;864913;-61
2021/05/30 05:01:58;;;;;;;5.86;3.17;;;;;;;;;;361689;146;866575;-59
2021/05/30 05:03:00;;;;;;;4.66;3.24;;;;;;;;;;358865;147;866644;-59
2021/05/30 05:04:02;;;;;;;3.84;3.20;;;;;;;;;;362755;146;858990;-59
2021/05/30 05:05:05;;;;;;;4.27;3.19;;;;;;;;;;355575;149;858908;-58
2021/05/30 05:06:07;;;;;;;3.21;2.90;;;;;;;;;;363295;147;858971;-59
2021/05/30 05:07:09;;;;;;;7.40;3.18;;;;;;;;;;363380;147;858486;-60
2021/05/30 05:08:10;;;;;;;6.10;3.34;;;;;;;;;;362855;147;860053;-60
2021/05/30 05:09:12;;;;;;;5.04;3.26;;;;;;;;;;359900;147;864869;-61
2021/05/30 05:10:14;;;;;;;3.81;2.95;;;;;;;;;;363906;146;860446;-60
2021/05/30 05:11:16;;;;;;;4.34;3.37;;;;;;;;;;362417;147;859987;-59
2021/05/30 05:12:17;;;;;;;3.68;2.84;;;;;;;;;;356202;149;865405;-59
2021/05/30 05:13:19;;;;;;;4.51;3.15;;;;;;;;;;356900;149;865031;-61
2021/05/30 05:14:20;;;;;;;4.50;2.98;;;;;;;;;;362372;147;857458;-59
2021/05/30 05:15:22;;;;;;;4.36;3.03;;;;;;;;;;355229;147;857464;-59
2021/05/30 05:16:25;;;;;;;4.12;3.36;;;;;;;;;;355121;149;857817;-60
2021/05/30 05:17:27;;;;;;;3.24;2.97;;;;;;;;;;354738;147;858915;-58
2021/05/30 05:18:29;;;;;;;3.49;3.04;;;;;;;;;;356471;147;859027;-60
2021/05/30 05:19:31;;;;;;;3.39;3.09;;;;;;;;;;358919;147;857812;-59
2021/05/30 05:20:33;;;;;;;5.17;2.95;;;;;;;;;;356223;147;857277;-61
2021/05/30 05:21:34;;;;;;;5.64;3.20;;;;;;;;;;356980;147;857329;-61
2021/05/30 05:22:36;;;;;;;4.79;3.50;;;;;;;;;;356378;147;857324;-58
2021/05/30 05:23:38;;;;;;;3.29;3.00;;;;;;;;;;355521;150;857178;-59
2021/05/30 05:24:40;;;;;;;4.93;3.18;;;;;;;;;;356762;149;857462;-59
2021/05/30 05:25:41;;;;;;;3.41;3.09;;;;;;;;;;355839;147;866731;-62
2021/05/30 05:26:43;;;;;;;4.34;2.99;;;;;;;;;;358761;147;866571;-59
2021/05/30 05:27:45;;;;;;;5.71;3.56;;;;;;;;;;355741;149;866520;-60
2021/05/30 05:28:47;;;;;;;6.09;3.39;;;;;;;;;;353203;147;857864;-60
2021/05/30 05:29:49;;;;;;;4.71;3.31;;;;;;;;;;355474;149;857602;-59
2021/05/30 05:30:52;;;;;;;6.56;3.45;;;;;;;;;;354038;147;866199;-60
2021/05/30 05:31:54;;;;;;;3.29;2.90;;;;;;;;;;360940;147;865323;-63
2021/05/30 05:32:59;;;;;;;4.49;3.31;;;;;;;;;;354573;149;860581;-60
2021/05/30 05:34:01;;;;;;;3.99;3.16;;;;;;;;;;357221;150;857880;-62
2021/05/30 05:35:02;;;;;;;3.46;3.13;;;;;;;;;;355548;149;858370;-60
2021/05/30 05:36:05;;;;;;;6.96;2.96;;;;;;;;;;357375;147;861470;-60
2021/05/30 05:37:06;;;;;;;4.03;3.35;;;;;;;;;;357623;147;866711;-60
2021/05/30 05:38:08;;;;;;;3.39;3.01;;;;;;;;;;355818;150;857734;-59
2021/05/30 05:39:09;;;;;;;3.38;3.06;;;;;;;;;;355167;149;865709;-60
2021/05/30 05:40:13;;;;;;;6.51;3.30;;;;;;;;;;357812;147;857978;-60
2021/05/30 05:41:14;;;;;;;5.98;3.23;;;;;;;;;;357244;147;858202;-60
2021/05/30 05:42:16;;;;;;;9.21;4.27;;;;;;;;;;357321;147;859287;-60
2021/05/30 05:43:17;;;;;;;4.52;3.31;;;;;;;;;;356533;149;864955;-60
2021/05/30 05:44:19;;;;;;;4.15;3.19;;;;;;;;;;358830;147;857516;-61
2021/05/30 05:45:21;;;;;;;4.18;3.56;;;;;;;;;;354083;147;857928;-59
2021/05/30 05:46:24;;;;;;;6.10;3.14;;;;;;;;;;356323;147;857146;-59
2021/05/30 05:47:25;;;;;;;7.57;3.45;;;;;;;;;;350471;150;863908;-60
2021/05/30 05:48:27;;;;;;;5.57;3.24;;;;;;;;;;348521;150;857435;-61
2021/05/30 05:49:28;;;;;;;3.35;3.05;;;;;;;;;;357071;149;857858;-60
2021/05/30 05:50:31;;;;;;;7.61;3.40;;;;;;;;;;354655;147;859686;-59
2021/05/30 05:51:32;;;;;;;4.81;3.40;;;;;;;;;;355625;147;856523;-59
2021/05/30 05:52:34;;;;;;;6.09;3.52;;;;;;;;;;357095;147;858711;-59
2021/05/30 05:53:35;;;;;;;3.59;3.29;;;;;;;;;;354664;149;860836;-60
2021/05/30 05:54:37;;;;;;;6.22;3.66;;;;;;;;;;360982;147;857244;-60
2021/05/30 05:55:38;;;;;;;5.76;2.99;;;;;;;;;;356387;149;857185;-59
2021/05/30 05:56:40;;;;;;;6.41;3.21;;;;;;;;;;354662;150;865944;-59
2021/05/30 05:57:42;;;;;;;4.64;3.56;;;;;;;;;;355290;150;859637;-60
2021/05/30 05:58:44;;;;;;;6.76;3.71;;;;;;;;;;355827;149;858765;-61
2021/05/30 05:59:46;;;;;;;4.89;3.28;;;;;;;;;;354480;150;865579;-60
2021/05/30 06:00:49;;;;;;;4.33;3.23;;;;;;;;;;357551;150;859048;-62
2021/05/30 06:01:53;;;;;;;3.89;3.05;;;;;;;;;;357280;147;859200;-60
2021/05/30 06:02:54;;;;;;;4.69;2.79;;;;;;;;;;357358;150;857877;-59
2021/05/30 06:03:56;;;;;;;4.28;2.98;;;;;;;;;;358642;148;859998;-59
2021/05/30 06:04:58;;;;;;;5.04;2.86;;;;;;;;;;359296;150;857352;-59
2021/05/30 06:06:00;;;;;;;3.30;2.89;;;;;;;;;;358064;150;857337;-59
2021/05/30 06:07:02;;;;;;;4.31;3.07;;;;;;;;;;358929;149;857193;-59
2021/05/30 06:08:04;;;;;;;4.53;3.47;;;;;;;;;;358892;150;857249;-59
2021/05/30 06:09:05;;;;;;;8.33;3.45;;;;;;;;;;357775;150;868942;-58
2021/05/30 06:10:08;;;;;;;4.24;2.95;;;;;;;;;;355273;149;859234;-59
2021/05/30 06:11:10;;;;;;;3.05;2.60;;;;;;;;;;355079;147;857928;-59
2021/05/30 06:12:12;;;;;;;3.62;3.01;;;;;;;;;;360598;147;857746;-58
2021/05/30 06:13:13;;;;;;;5.28;2.78;;;;;;;;;;355810;147;857498;-59
2021/05/30 06:14:15;;;;;;;4.79;2.60;;;;;;;;;;363865;147;864972;-59
2021/05/30 06:15:17;;;;;;;4.80;2.76;;;;;;;;;;355964;147;857347;-59
2021/05/30 06:16:20;;;;;;;3.42;2.67;;;;;;;;;;353426;150;857494;-59
2021/05/30 06:17:23;;;;;;;6.32;2.88;;;;;;;;;;356237;147;857835;-59
2021/05/30 06:18:26;;;;;;;4.67;2.59;;;;;;;;;;357187;147;859367;-59
2021/05/30 06:19:28;;;;;;;3.04;2.41;;;;;;;;;;357955;147;866736;-59
2021/05/30 06:20:30;;;;;;;2.79;2.47;;;;;;;;;;357178;147;857206;-59
2021/05/30 06:21:31;;;;;;;5.99;2.41;;;;;;;;;;357072;147;857235;-59
2021/05/30 06:22:33;;;;;;;5.02;2.64;;;;;;;;;;356528;150;865833;-59
2021/05/30 06:23:37;;;;;;;4.36;2.46;;;;;;;;;;359479;147;858772;-60
2021/05/30 06:24:38;;;;;;;2.71;2.30;;;;;;;;;;355977;150;866654;-60
2021/05/30 06:25:43;;;;;;;4.86;2.57;;;;;;;;;;359043;150;865387;-59
2021/05/30 06:26:46;;;;;;;3.05;2.54;;;;;;;;;;356860;147;861715;-60
2021/05/30 06:27:47;;;;;;;5.73;3.28;;;;;;;;;;355920;147;857757;-61
2021/05/30 06:28:49;;;;;;;9.79;2.22;;;;;;;;;;359024;147;859650;-59
2021/05/30 06:29:50;;;;;;;3.22;2.18;;;;;;;;;;358291;147;858519;-59
2021/05/30 06:30:53;;;;;;;4.89;2.26;;;;;;;;;;359333;147;857353;-62
2021/05/30 06:31:54;;;;;;;4.84;2.28;;;;;;;;;;356343;147;857462;-61
2021/05/30 06:32:56;;;;;;;5.65;2.31;;;;;;;;;;354397;147;857400;-62